createdAt,value
2023-04-07T00:00:26.981Z,85.60
2023-04-07T00:02:57.172Z,85.70
2023-04-07T00:05:23.999Z,85.70
2023-04-07T00:07:56.336Z,85.60
2023-04-07T00:10:25.847Z,85.70
2023-04-07T00:12:52.850Z,85.70
2023-04-07T00:15:19.711Z,86.70
2023-04-07T00:17:46.579Z,86.70
2023-04-07T00:20:13.410Z,86.70
2023-04-07T00:22:40.104Z,86.70
2023-04-07T00:25:07.497Z,86.50
2023-04-07T00:27:34.293Z,86.50
2023-04-07T00:30:01.153Z,86.50
2023-04-07T00:32:27.961Z,86.50
2023-04-07T00:34:54.724Z,86.40
2023-04-07T00:37:21.662Z,86.50
2023-04-07T00:39:48.399Z,86.40
2023-04-07T00:42:15.410Z,86.40
2023-04-07T00:44:42.196Z,86.50
2023-04-07T00:47:09.380Z,86.30
2023-04-07T00:49:38.168Z,86.30
2023-04-07T00:52:06.659Z,86.40
2023-04-07T00:54:33.433Z,86.30
2023-04-07T00:57:01.620Z,86.40
2023-04-07T00:59:31.265Z,86.30
2023-04-07T01:02:18.877Z,86.30
2023-04-07T01:04:56.130Z,86.10
2023-04-07T01:07:27.500Z,86.20
2023-04-07T01:10:09.416Z,86.30
2023-04-07T01:12:54.600Z,86.10
2023-04-07T01:15:23.376Z,86.10
2023-04-07T01:17:56.194Z,86.20
2023-04-07T01:20:26.823Z,86.30
2023-04-07T01:22:58.590Z,86.20
2023-04-07T01:25:34.467Z,86.30
2023-04-07T01:28:02.048Z,86.30
2023-04-07T01:30:31.688Z,86.30
2023-04-07T01:33:02.464Z,86.30
2023-04-07T01:35:32.450Z,86.40
2023-04-07T01:38:00.443Z,86.40
2023-04-07T01:40:29.286Z,86.40
2023-04-07T01:42:57.940Z,86.40
2023-04-07T01:45:26.572Z,86.50
2023-04-07T01:47:55.475Z,86.50
2023-04-07T01:50:22.538Z,86.50
2023-04-07T01:52:49.591Z,86.50
2023-04-07T01:55:16.550Z,86.60
2023-04-07T01:57:45.875Z,86.60
2023-04-07T02:00:16.369Z,86.70
2023-04-07T02:02:46.605Z,86.70
2023-04-07T02:05:20.856Z,86.70
2023-04-07T02:08:02.484Z,86.70
2023-04-07T02:10:32.985Z,86.70
2023-04-07T02:13:01.815Z,86.70
2023-04-07T02:15:30.918Z,86.70
2023-04-07T02:17:59.363Z,86.80
2023-04-07T02:20:26.753Z,86.80
2023-04-07T02:22:54.584Z,86.80
2023-04-07T02:25:22.104Z,86.80
2023-04-07T02:27:48.828Z,86.90
2023-04-07T02:30:15.920Z,86.90
2023-04-07T02:32:46.031Z,87.00
2023-04-07T02:35:12.997Z,87.00
2023-04-07T02:37:39.985Z,87.00
2023-04-07T02:40:07.459Z,87.10
2023-04-07T02:42:34.273Z,87.00
2023-04-07T02:45:01.069Z,87.20
2023-04-07T02:47:27.898Z,87.10
2023-04-07T02:49:54.671Z,87.00
2023-04-07T02:52:21.450Z,87.00
2023-04-07T02:54:50.782Z,87.00
2023-04-07T02:57:17.458Z,87.00
2023-04-07T02:59:44.188Z,87.00
2023-04-07T03:02:11.374Z,87.00
2023-04-07T03:04:38.293Z,87.10
2023-04-07T03:07:05.035Z,87.10
2023-04-07T03:09:31.793Z,87.10
2023-04-07T03:11:58.498Z,87.20
2023-04-07T03:14:25.276Z,87.30
2023-04-07T03:16:52.155Z,87.20
2023-04-07T03:19:18.958Z,87.20
2023-04-07T03:21:45.672Z,87.30
2023-04-07T03:24:12.446Z,87.30
2023-04-07T03:26:39.244Z,87.30
2023-04-07T03:29:06.049Z,87.20
2023-04-07T03:31:32.757Z,87.30
2023-04-07T03:33:59.492Z,87.30
2023-04-07T03:36:28.251Z,88.10
2023-04-07T03:39:03.848Z,87.30
2023-04-07T03:41:33.763Z,87.30
2023-04-07T03:44:00.592Z,87.30
2023-04-07T03:46:27.421Z,87.30
2023-04-07T03:48:56.975Z,87.30
2023-04-07T03:51:23.661Z,87.30
2023-04-07T03:53:51.176Z,87.30
2023-04-07T03:56:20.779Z,87.30
2023-04-07T03:58:49.298Z,87.40
2023-04-07T04:01:16.219Z,87.30
2023-04-07T04:03:47.026Z,87.30
2023-04-07T04:06:13.989Z,87.50
2023-04-07T04:08:40.900Z,87.40
2023-04-07T04:11:10.745Z,87.40
2023-04-07T04:13:37.540Z,87.50
2023-04-07T04:16:04.887Z,88.50
2023-04-07T04:18:31.642Z,87.50
2023-04-07T04:20:58.317Z,87.50
2023-04-07T04:23:25.088Z,87.80
2023-04-07T04:25:51.848Z,87.60
2023-04-07T04:28:18.796Z,87.60
2023-04-07T04:30:45.938Z,87.60
2023-04-07T04:33:12.672Z,87.60
2023-04-07T04:35:39.709Z,87.60
2023-04-07T04:38:06.470Z,87.60
2023-04-07T04:40:33.211Z,87.60
2023-04-07T04:42:59.965Z,87.70
2023-04-07T04:45:26.699Z,87.80
2023-04-07T04:47:53.444Z,87.90
2023-04-07T04:50:20.948Z,87.80
2023-04-07T04:52:52.188Z,88.00
2023-04-07T04:55:19.212Z,87.90
2023-04-07T04:57:46.348Z,88.00
2023-04-07T05:00:13.605Z,88.00
2023-04-07T05:02:40.680Z,87.90
2023-04-07T05:05:08.168Z,87.80
2023-04-07T05:07:34.898Z,87.90
2023-04-07T05:10:01.599Z,88.00
2023-04-07T05:12:28.389Z,88.00
2023-04-07T05:14:55.136Z,87.90
2023-04-07T05:17:21.939Z,88.00
2023-04-07T05:19:48.643Z,88.00
2023-04-07T05:22:15.907Z,87.90
2023-04-07T05:24:42.810Z,88.00
2023-04-07T05:27:09.609Z,88.00
2023-04-07T05:29:39.283Z,88.20
2023-04-07T05:32:06.446Z,88.30
2023-04-07T05:34:33.289Z,88.30
2023-04-07T05:36:59.998Z,88.20
2023-04-07T05:39:27.214Z,88.20
2023-04-07T05:41:53.983Z,88.30
2023-04-07T05:44:20.759Z,88.30
2023-04-07T05:46:47.516Z,88.30
2023-04-07T05:49:20.120Z,88.30
2023-04-07T05:51:48.806Z,88.40
2023-04-07T05:54:16.743Z,88.50
2023-04-07T05:56:43.540Z,88.50
2023-04-07T05:59:10.644Z,88.70
2023-04-07T06:01:37.375Z,88.70
2023-04-07T06:04:04.355Z,88.70
2023-04-07T06:06:31.394Z,88.80
2023-04-07T06:08:58.381Z,88.70
2023-04-07T06:11:26.391Z,89.60
2023-04-07T06:13:53.124Z,88.80
2023-04-07T06:16:19.969Z,88.80
2023-04-07T06:18:47.029Z,89.60
2023-04-07T06:21:15.551Z,88.80
2023-04-07T06:23:42.287Z,88.90
2023-04-07T06:26:12.305Z,88.90
2023-04-07T06:28:39.377Z,88.90
2023-04-07T06:31:08.791Z,88.90
2023-04-07T06:33:35.704Z,88.80
2023-04-07T06:36:02.551Z,88.80
2023-04-07T06:38:31.642Z,88.70
2023-04-07T06:40:58.555Z,88.80
2023-04-07T06:43:25.358Z,88.80
2023-04-07T06:45:52.113Z,88.90
2023-04-07T06:48:22.757Z,88.90
2023-04-07T06:50:50.465Z,88.80
2023-04-07T06:53:17.287Z,88.80
2023-04-07T06:55:44.031Z,88.70
2023-04-07T06:58:11.013Z,88.70
2023-04-07T07:00:37.932Z,88.50
2023-04-07T07:03:04.789Z,87.50
2023-04-07T07:05:31.964Z,87.30
2023-04-07T07:08:01.568Z,87.40
2023-04-07T07:10:28.430Z,87.40
2023-04-07T07:12:55.231Z,87.30
2023-04-07T07:15:22.014Z,87.20
2023-04-07T07:17:48.757Z,87.00
2023-04-07T07:20:15.759Z,86.90
2023-04-07T07:22:42.921Z,86.70
2023-04-07T07:25:10.028Z,86.60
2023-04-07T07:27:36.730Z,86.60
2023-04-07T07:30:03.661Z,86.60
2023-04-07T07:32:30.417Z,86.70
2023-04-07T07:34:57.177Z,86.60
2023-04-07T07:37:23.955Z,86.50
2023-04-07T07:39:53.666Z,86.40
2023-04-07T07:42:20.445Z,86.40
2023-04-07T07:44:47.216Z,86.30
2023-04-07T07:47:13.918Z,86.30
2023-04-07T07:49:41.827Z,86.10
2023-04-07T07:52:10.227Z,86.00
2023-04-07T07:54:37.065Z,85.80
2023-04-07T07:57:04.425Z,85.70
2023-04-07T07:59:31.370Z,85.80
2023-04-07T08:01:58.686Z,85.70
2023-04-07T08:04:26.221Z,85.60
2023-04-07T08:06:53.535Z,85.60
2023-04-07T08:09:20.410Z,85.50
2023-04-07T08:11:48.578Z,85.60
2023-04-07T08:14:15.933Z,85.70
2023-04-07T08:16:42.857Z,85.40
2023-04-07T08:19:10.293Z,85.20
2023-04-07T08:21:37.149Z,84.90
2023-04-07T08:24:04.508Z,84.90
2023-04-07T08:26:31.380Z,84.70
2023-04-07T08:28:58.675Z,84.50
2023-04-07T08:31:26.334Z,84.30
2023-04-07T08:34:00.241Z,84.40
2023-04-07T08:36:28.136Z,84.30
2023-04-07T08:38:55.168Z,84.30
2023-04-07T08:41:33.857Z,84.20
2023-04-07T08:44:02.683Z,84.10
2023-04-07T08:46:30.047Z,84.00
2023-04-07T08:49:00.514Z,83.90
2023-04-07T08:51:33.950Z,83.80
2023-04-07T08:54:12.266Z,83.70
2023-04-07T08:56:43.810Z,83.70
2023-04-07T08:59:15.805Z,83.70
2023-04-07T09:01:42.719Z,83.60
2023-04-07T09:04:14.154Z,83.40
2023-04-07T09:06:43.474Z,83.30
2023-04-07T09:09:11.544Z,83.40
2023-04-07T09:11:40.273Z,83.50
2023-04-07T09:14:09.000Z,83.60
2023-04-07T09:16:36.337Z,83.60
2023-04-07T09:19:03.257Z,83.50
2023-04-07T09:21:50.252Z,83.40
2023-04-07T09:24:27.148Z,83.20
2023-04-07T09:27:18.020Z,83.20
2023-04-07T09:29:47.033Z,82.90
2023-04-07T09:32:36.682Z,82.90
2023-04-07T09:35:04.510Z,82.60
2023-04-07T09:37:31.240Z,82.70
2023-04-07T09:40:00.965Z,82.70
2023-04-07T09:42:32.359Z,82.60
2023-04-07T09:45:00.620Z,82.60
2023-04-07T09:47:31.994Z,82.50
2023-04-07T09:50:06.458Z,82.60
2023-04-07T09:53:03.611Z,82.60
2023-04-07T09:55:30.964Z,82.70
2023-04-07T09:57:58.189Z,82.50
2023-04-07T10:00:26.537Z,82.20
2023-04-07T10:02:54.710Z,81.90
2023-04-07T10:05:22.639Z,81.80
2023-04-07T10:07:51.490Z,81.50
2023-04-07T10:10:18.314Z,81.20
2023-04-07T10:12:46.053Z,81.40
2023-04-07T10:15:16.667Z,81.40
2023-04-07T10:17:50.489Z,81.40
2023-04-07T10:20:22.843Z,81.50
2023-04-07T10:22:52.065Z,81.50
2023-04-07T10:25:21.265Z,81.20
2023-04-07T10:27:59.919Z,81.10
2023-04-07T10:30:32.465Z,80.90
2023-04-07T10:32:59.641Z,80.70
2023-04-07T10:35:27.105Z,80.70
2023-04-07T10:38:12.091Z,80.80
2023-04-07T10:40:39.062Z,80.80
2023-04-07T10:43:11.303Z,80.80
2023-04-07T10:45:48.623Z,80.70
2023-04-07T10:48:17.296Z,80.70
2023-04-07T10:51:03.752Z,80.50
2023-04-07T10:53:31.566Z,80.50
2023-04-07T10:55:59.430Z,80.80
2023-04-07T10:58:30.829Z,80.70
2023-04-07T11:01:00.701Z,81.50
2023-04-07T11:03:37.393Z,80.60
2023-04-07T11:06:10.029Z,80.50
2023-04-07T11:08:42.326Z,80.40
2023-04-07T11:11:11.580Z,80.20
2023-04-07T11:13:47.840Z,80.00
2023-04-07T11:16:20.832Z,79.50
2023-04-07T11:18:48.015Z,79.30
2023-04-07T11:21:19.264Z,79.20
2023-04-07T11:23:47.767Z,79.30
2023-04-07T11:26:18.455Z,79.30
2023-04-07T11:28:51.770Z,79.30
2023-04-07T11:31:31.879Z,79.30
2023-04-07T11:34:01.962Z,79.10
2023-04-07T11:36:31.158Z,79.20
2023-04-07T11:38:58.489Z,79.20
2023-04-07T11:41:27.694Z,79.20
2023-04-07T11:44:11.703Z,79.20
2023-04-07T11:46:56.603Z,79.00
2023-04-07T11:49:25.029Z,78.90
2023-04-07T11:52:03.516Z,79.50
2023-04-07T11:54:44.001Z,79.20
2023-04-07T11:57:13.005Z,79.40
2023-04-07T11:59:42.929Z,79.40
2023-04-07T12:02:10.159Z,79.40
2023-04-07T12:04:40.155Z,79.30
2023-04-07T12:07:09.551Z,79.40
2023-04-07T12:09:37.585Z,79.50
2023-04-07T12:12:06.452Z,79.30
2023-04-07T12:14:33.551Z,79.40
2023-04-07T12:17:03.156Z,79.30
2023-04-07T12:19:33.561Z,79.40
2023-04-07T12:22:03.323Z,79.60
2023-04-07T12:24:32.189Z,79.50
2023-04-07T12:26:59.614Z,79.30
2023-04-07T12:29:26.431Z,79.30
2023-04-07T12:31:53.277Z,79.10
2023-04-07T12:34:20.209Z,79.00
2023-04-07T12:36:50.008Z,78.70
2023-04-07T12:39:16.955Z,78.60
2023-04-07T12:41:47.853Z,78.50
2023-04-07T12:44:15.659Z,78.40
2023-04-07T12:46:43.242Z,78.20
2023-04-07T12:49:10.124Z,78.20
2023-04-07T12:51:38.606Z,78.20
2023-04-07T12:54:05.423Z,78.40
2023-04-07T12:56:34.284Z,78.20
2023-04-07T12:59:00.973Z,77.90
2023-04-07T13:01:27.900Z,78.00
2023-04-07T13:03:55.045Z,78.00
2023-04-07T13:06:24.633Z,77.80
2023-04-07T13:08:51.761Z,77.90
2023-04-07T13:11:18.572Z,77.80
2023-04-07T13:13:45.370Z,77.80
2023-04-07T13:16:12.128Z,77.70
2023-04-07T13:18:38.887Z,77.50
2023-04-07T13:21:40.598Z,77.40
2023-04-07T13:23:55.544Z,77.30
2023-04-07T13:26:22.514Z,77.30
2023-04-07T13:28:49.180Z,77.00
2023-04-07T13:31:16.299Z,77.20
2023-04-07T13:33:43.530Z,77.30
2023-04-07T13:36:10.448Z,77.50
2023-04-07T13:38:37.294Z,77.40
2023-04-07T13:41:04.243Z,77.50
2023-04-07T13:43:30.989Z,77.50
2023-04-07T13:45:57.892Z,77.70
2023-04-07T13:48:24.791Z,77.70
2023-04-07T13:50:51.470Z,77.80
2023-04-07T13:53:19.215Z,78.00
2023-04-07T13:55:48.820Z,78.10
2023-04-07T13:58:18.863Z,78.10
2023-04-07T14:00:45.710Z,78.20
2023-04-07T14:03:12.528Z,78.20
2023-04-07T14:05:39.375Z,78.10
2023-04-07T14:08:09.271Z,78.00
2023-04-07T14:10:36.452Z,77.70
2023-04-07T14:13:03.160Z,77.80
2023-04-07T14:15:29.895Z,77.80
2023-04-07T14:17:56.838Z,77.80
2023-04-07T14:20:25.333Z,77.90
2023-04-07T14:22:53.425Z,77.90
2023-04-07T14:25:20.716Z,78.00
2023-04-07T14:27:47.539Z,77.90
2023-04-07T14:30:16.596Z,77.80
2023-04-07T14:32:43.325Z,77.70
2023-04-07T14:35:10.745Z,77.60
2023-04-07T14:37:37.996Z,77.50
2023-04-07T14:40:06.333Z,77.50
2023-04-07T14:42:33.506Z,77.20
2023-04-07T14:45:00.547Z,77.20
2023-04-07T14:47:29.878Z,77.20
2023-04-07T14:49:56.671Z,77.10
2023-04-07T14:52:23.433Z,77.20
2023-04-07T14:54:50.163Z,77.10
2023-04-07T14:57:17.279Z,77.20
2023-04-07T14:59:44.276Z,77.20
2023-04-07T15:02:11.431Z,77.00
2023-04-07T15:04:38.712Z,76.90
2023-04-07T15:07:06.671Z,77.10
2023-04-07T15:09:36.417Z,77.00
2023-04-07T15:12:05.045Z,77.20
2023-04-07T15:14:31.913Z,77.30
2023-04-07T15:16:58.589Z,77.30
2023-04-07T15:19:25.377Z,77.40
2023-04-07T15:22:01.115Z,77.40
2023-04-07T15:24:28.138Z,77.50
2023-04-07T15:26:55.176Z,77.40
2023-04-07T15:29:22.040Z,77.40
2023-04-07T15:31:48.865Z,77.30
2023-04-07T15:34:17.782Z,77.30
2023-04-07T15:36:44.563Z,77.40
2023-04-07T15:39:11.271Z,77.30
2023-04-07T15:41:38.187Z,77.30
2023-04-07T15:44:05.133Z,77.30
2023-04-07T15:46:32.422Z,77.30
2023-04-07T15:49:00.134Z,78.20
2023-04-07T15:51:29.594Z,77.40
2023-04-07T15:53:56.521Z,77.30
2023-04-07T15:56:27.543Z,77.10
2023-04-07T15:58:54.418Z,77.10
2023-04-07T16:01:21.181Z,77.10
2023-04-07T16:03:48.414Z,77.10
2023-04-07T16:06:15.513Z,78.00
2023-04-07T16:08:42.518Z,77.10
2023-04-07T16:11:09.250Z,77.10
2023-04-07T16:13:36.392Z,76.90
2023-04-07T16:16:03.209Z,77.00
2023-04-07T16:18:30.417Z,77.00
2023-04-07T16:20:59.266Z,76.90
2023-04-07T16:23:26.409Z,76.90
2023-04-07T16:25:53.109Z,77.00
2023-04-07T16:28:19.992Z,77.00
2023-04-07T16:30:46.711Z,76.90
2023-04-07T16:33:13.660Z,77.00
2023-04-07T16:35:40.479Z,77.10
2023-04-07T16:38:07.347Z,77.10
2023-04-07T16:40:36.075Z,77.30
2023-04-07T16:43:05.668Z,77.40
2023-04-07T16:45:32.427Z,77.40
2023-04-07T16:47:59.806Z,77.40
2023-04-07T16:50:26.642Z,77.30
2023-04-07T16:52:54.857Z,77.40
2023-04-07T16:55:24.656Z,77.40
2023-04-07T16:57:54.531Z,77.30
2023-04-07T17:00:22.012Z,77.50
2023-04-07T17:02:49.413Z,77.60
2023-04-07T17:05:17.348Z,77.60
2023-04-07T17:07:44.054Z,77.60
2023-04-07T17:10:11.017Z,77.60
2023-04-07T17:12:37.707Z,77.60
2023-04-07T17:15:04.621Z,77.60
2023-04-07T17:17:31.407Z,77.60
2023-04-07T17:19:59.706Z,77.50
2023-04-07T17:22:26.456Z,77.60
2023-04-07T17:24:53.262Z,77.80
2023-04-07T17:27:20.103Z,77.80
2023-04-07T17:29:46.845Z,77.80
2023-04-07T17:32:16.452Z,77.90
2023-04-07T17:34:43.159Z,77.90
2023-04-07T17:37:09.835Z,77.80
2023-04-07T17:39:36.652Z,77.70
2023-04-07T17:42:03.447Z,77.70
2023-04-07T17:44:31.038Z,77.80
2023-04-07T17:46:57.797Z,77.80
2023-04-07T17:49:24.953Z,77.80
2023-04-07T17:51:55.473Z,78.70
2023-04-07T17:54:22.284Z,78.00
2023-04-07T17:56:49.265Z,77.90
2023-04-07T17:59:16.097Z,78.00
2023-04-07T18:01:42.897Z,78.00
2023-04-07T18:04:10.056Z,78.00
2023-04-07T18:06:37.133Z,78.20
2023-04-07T18:09:04.839Z,78.20
2023-04-07T18:11:32.737Z,78.20
2023-04-07T18:14:00.739Z,78.10
2023-04-07T18:16:27.670Z,78.20
2023-04-07T18:18:54.521Z,78.30
2023-04-07T18:21:21.799Z,78.30
2023-04-07T18:23:48.739Z,78.50
2023-04-07T18:26:16.195Z,78.50
2023-04-07T18:28:42.987Z,78.60
2023-04-07T18:31:10.043Z,78.50
2023-04-07T18:33:37.183Z,78.60
2023-04-07T18:36:07.045Z,78.70
2023-04-07T18:38:38.171Z,78.80
2023-04-07T18:41:06.828Z,78.70
2023-04-07T18:43:33.552Z,78.90
2023-04-07T18:46:02.518Z,78.90
2023-04-07T18:48:29.384Z,79.00
2023-04-07T18:50:56.631Z,79.20
2023-04-07T18:53:25.250Z,79.20
2023-04-07T18:55:52.501Z,79.30
2023-04-07T18:58:20.005Z,79.50
2023-04-07T19:00:49.768Z,79.50
2023-04-07T19:03:17.029Z,79.70
2023-04-07T19:05:47.281Z,79.70
2023-04-07T19:08:15.855Z,79.90
2023-04-07T19:10:42.819Z,80.00
2023-04-07T19:13:09.636Z,80.00
2023-04-07T19:15:39.341Z,80.10
2023-04-07T19:18:08.158Z,80.10
2023-04-07T19:20:35.541Z,80.20
2023-04-07T19:23:02.675Z,80.10
2023-04-07T19:25:30.730Z,80.20
2023-04-07T19:27:58.423Z,80.40
2023-04-07T19:30:25.227Z,80.40
2023-04-07T19:32:52.446Z,80.50
2023-04-07T19:35:19.356Z,80.50
2023-04-07T19:37:48.511Z,80.50
2023-04-07T19:40:15.441Z,80.50
2023-04-07T19:42:42.287Z,80.60
2023-04-07T19:45:09.633Z,80.60
2023-04-07T19:47:36.937Z,80.70
2023-04-07T19:50:05.155Z,80.70
2023-04-07T19:52:34.993Z,80.70
2023-04-07T19:55:03.781Z,80.70
2023-04-07T19:57:34.076Z,80.80
2023-04-07T20:00:00.812Z,80.70
2023-04-07T20:02:30.760Z,80.80
2023-04-07T20:04:57.988Z,80.90
2023-04-07T20:07:27.505Z,80.90
2023-04-07T20:09:57.429Z,81.10
2023-04-07T20:12:24.569Z,80.90
2023-04-07T20:14:51.662Z,80.90
2023-04-07T20:17:19.657Z,81.00
2023-04-07T20:19:47.091Z,81.00
2023-04-07T20:22:13.834Z,81.10
2023-04-07T20:24:40.606Z,81.10
2023-04-07T20:27:07.349Z,81.10
2023-04-07T20:29:34.152Z,81.20
2023-04-07T20:32:01.157Z,81.30
2023-04-07T20:34:27.968Z,81.30
2023-04-07T20:36:56.823Z,81.30
2023-04-07T20:39:23.632Z,81.40
2023-04-07T20:41:50.830Z,81.40
2023-04-07T20:44:18.333Z,81.50
2023-04-07T20:46:46.871Z,81.40
2023-04-07T20:49:13.638Z,81.50
2023-04-07T20:51:40.341Z,81.50
2023-04-07T20:54:07.836Z,81.60
2023-04-07T20:56:34.845Z,81.60
2023-04-07T20:59:01.804Z,81.60
2023-04-07T21:01:28.713Z,81.70
2023-04-07T21:04:01.041Z,81.70
2023-04-07T21:06:30.753Z,81.70
2023-04-07T21:08:57.771Z,81.70
2023-04-07T21:11:24.555Z,81.70
2023-04-07T21:13:51.248Z,81.90
2023-04-07T21:16:18.022Z,82.00
2023-04-07T21:18:44.804Z,82.00
2023-04-07T21:21:16.851Z,82.10
2023-04-07T21:23:43.645Z,82.10
2023-04-07T21:26:10.754Z,82.20
2023-04-07T21:28:40.359Z,82.30
2023-04-07T21:31:07.871Z,82.30
2023-04-07T21:33:35.034Z,82.40
2023-04-07T21:36:03.712Z,82.40
2023-04-07T21:38:33.583Z,82.40
2023-04-07T21:41:00.424Z,82.50
2023-04-07T21:43:30.011Z,82.50
2023-04-07T21:45:56.717Z,82.60
2023-04-07T21:48:23.744Z,82.70
2023-04-07T21:50:53.576Z,82.70
2023-04-07T21:53:20.414Z,82.80
2023-04-07T21:55:47.162Z,82.80
2023-04-07T21:58:13.920Z,82.80
2023-04-07T22:00:40.777Z,82.90
2023-04-07T22:03:08.004Z,82.90
2023-04-07T22:05:37.629Z,82.90
2023-04-07T22:08:04.452Z,82.90
2023-04-07T22:10:31.723Z,83.10
2023-04-07T22:12:58.499Z,83.20
2023-04-07T22:15:25.404Z,83.20
2023-04-07T22:17:52.168Z,83.30
2023-04-07T22:20:19.294Z,83.40
2023-04-07T22:22:49.105Z,83.50
2023-04-07T22:25:18.932Z,83.50
2023-04-07T22:27:46.330Z,83.60
2023-04-07T22:30:15.752Z,83.60
2023-04-07T22:32:42.538Z,83.80
2023-04-07T22:35:09.920Z,83.80
2023-04-07T22:37:36.772Z,84.80
2023-04-07T22:40:03.693Z,84.90
2023-04-07T22:42:30.498Z,85.10
2023-04-07T22:44:57.207Z,84.10
2023-04-07T22:47:24.060Z,85.20
2023-04-07T22:49:50.772Z,85.30
2023-04-07T22:52:17.542Z,85.40
2023-04-07T22:54:44.342Z,85.40
2023-04-07T22:57:17.258Z,85.50
2023-04-07T22:59:44.038Z,85.40
2023-04-07T23:02:13.911Z,85.50
2023-04-07T23:04:41.077Z,86.40
2023-04-07T23:07:07.802Z,85.70
2023-04-07T23:09:34.687Z,85.70
2023-04-07T23:12:01.830Z,85.80
2023-04-07T23:14:28.562Z,85.90
2023-04-07T23:16:56.159Z,86.00
2023-04-07T23:19:23.280Z,86.00
2023-04-07T23:21:50.125Z,84.90
2023-04-07T23:24:16.843Z,84.90
2023-04-07T23:26:48.509Z,86.00
2023-04-07T23:29:15.707Z,86.10
2023-04-07T23:31:42.508Z,86.10
2023-04-07T23:34:12.145Z,86.20
2023-04-07T23:36:39.833Z,85.30
2023-04-07T23:39:09.176Z,85.30
2023-04-07T23:41:36.048Z,85.30
2023-04-07T23:44:03.823Z,85.30
2023-04-07T23:46:33.718Z,85.30
2023-04-07T23:49:00.449Z,85.40
2023-04-07T23:51:27.709Z,85.40
2023-04-07T23:53:54.537Z,86.40
2023-04-07T23:56:21.445Z,86.50
2023-04-07T23:59:03.296Z,86.50
